Time;durP1;ratioP1;P1;durP2;ratioP2;P2;SDS_P1;SDS_P2;PMS_P1;PMS_P2;Temp;Humidity;BMP_temperature;BMP_pressure;BME280_temperature;BME280_humidity;BME280_pressure;Samples;Min_cycle;Max_cycle;Signal;HPM_P1;HPM_P2
2021/11/16 00:01:42;;;;;;;16.57;12.05;;;;;;;1.62;68.95;102002.33;1671062;85;21161;-81
2021/11/16 00:04:09;;;;;;;13.65;11.65;;;;;;;1.60;68.85;102002.45;1688761;84;21498;-80
2021/11/16 00:06:35;;;;;;;13.83;11.53;;;;;;;1.60;68.78;102002.45;1690763;83;21011;-80
2021/11/16 00:09:03;;;;;;;14.00;11.03;;;;;;;1.63;68.61;102004.02;1694682;84;21018;-73
2021/11/16 00:11:32;;;;;;;15.83;9.23;;;;;;;1.60;68.44;102005.11;1670495;84;21048;-73
2021/11/16 00:14:00;;;;;;;7.28;5.95;;;;;;;1.61;68.14;102010.77;1692259;84;21538;-74
2021/11/16 00:16:27;;;;;;;7.78;6.05;;;;;;;1.56;68.06;102013.47;1682003;84;21132;-71
2021/11/16 00:18:59;;;;;;;6.67;6.03;;;;;;;1.50;68.10;102011.34;1701912;84;21584;-75
2021/11/16 00:21:26;;;;;;;6.92;6.03;;;;;;;1.43;68.13;102000.45;1673335;84;21047;-78
2021/11/16 00:23:57;;;;;;;10.75;6.40;;;;;;;1.40;68.28;102007.33;1704889;83;21087;-78
2021/11/16 00:26:22;;;;;;;10.80;8.73;;;;;;;1.42;68.30;102009.86;1701787;84;20943;-82
2021/11/16 00:28:49;;;;;;;8.98;8.05;;;;;;;1.44;68.40;102006.08;1702629;83;21118;-80
2021/11/16 00:31:15;;;;;;;9.75;8.75;;;;;;;1.44;68.20;102006.08;1701606;83;21058;-75
2021/11/16 00:33:42;;;;;;;12.80;8.83;;;;;;;1.41;68.14;102009.02;1701799;84;20990;-78
2021/11/16 00:36:10;;;;;;;10.55;9.28;;;;;;;1.40;68.23;102006.00;1690964;84;21083;-87
2021/11/16 00:38:37;;;;;;;9.05;7.40;;;;;;;1.41;68.20;101998.89;1709836;83;21055;-81
2021/11/16 00:41:03;;;;;;;10.70;7.67;;;;;;;1.41;68.13;101998.41;1710393;84;21587;-80
2021/11/16 00:43:30;;;;;;;11.43;7.70;;;;;;;1.40;68.11;101999.37;1715941;82;21031;-84
2021/11/16 00:45:57;;;;;;;10.98;7.87;;;;;;;1.39;68.07;101995.55;1710780;82;21011;-85
2021/11/16 00:48:25;;;;;;;12.37;7.30;;;;;;;1.35;67.87;101991.47;1679582;84;21117;-81
2021/11/16 00:50:57;;;;;;;15.58;9.00;;;;;;;1.35;67.87;101994.95;1681065;84;21603;-83
2021/11/16 00:53:28;;;;;;;15.88;8.80;;;;;;;1.29;67.60;101999.01;1681776;83;21076;-78
2021/11/16 00:55:54;;;;;;;15.65;8.25;;;;;;;1.30;67.75;102001.14;1722316;82;21035;-77
2021/11/16 00:58:20;;;;;;;16.70;10.23;;;;;;;1.31;67.62;102003.67;1704242;82;21098;-80
2021/11/16 01:00:47;;;;;;;19.77;10.38;;;;;;;1.29;67.59;101998.16;1681929;82;20947;-73
2021/11/16 01:03:14;;;;;;;23.77;12.18;;;;;;;1.23;67.72;101995.55;1681828;82;21067;-71
2021/11/16 01:05:40;;;;;;;24.25;12.98;;;;;;;1.19;67.79;101987.52;1713810;82;21023;-70
2021/11/16 01:08:08;;;;;;;21.62;13.22;;;;;;;1.17;67.90;101996.08;1729486;82;20983;-69
2021/11/16 01:10:38;;;;;;;18.32;11.95;;;;;;;1.14;68.11;101988.40;1705508;82;21500;-71
2021/11/16 01:13:05;;;;;;;19.07;11.30;;;;;;;1.14;68.24;101984.42;1732304;82;21516;-72
2021/11/16 01:15:34;;;;;;;19.00;12.70;;;;;;;1.16;68.36;101982.95;1694027;84;21524;-71
2021/11/16 01:18:01;;;;;;;17.02;10.25;;;;;;;1.21;68.30;101985.56;1693103;84;21424;-79
2021/11/16 01:20:28;;;;;;;16.52;8.50;;;;;;;1.26;68.20;101982.51;1711009;83;21007;-73
2021/11/16 01:22:56;;;;;;;10.75;7.85;;;;;;;1.27;68.00;101982.38;1691873;84;21318;-73
2021/11/16 01:25:24;;;;;;;11.80;8.43;;;;;;;1.27;67.99;101984.19;1685043;84;21063;-71
2021/11/16 01:27:51;;;;;;;12.68;8.40;;;;;;;1.23;68.06;101984.95;1691480;84;21031;-72
2021/11/16 01:30:21;;;;;;;11.97;8.35;;;;;;;1.21;68.30;101991.34;1726918;82;21535;-69
2021/11/16 01:33:11;;;;;;;10.90;7.92;;;;;;;1.19;68.47;101983.55;1732638;82;20971;-72
2021/11/16 01:35:15;;;;;;;7.22;5.78;;;;;;;1.16;68.48;101977.64;1703122;82;21057;-72
2021/11/16 01:37:41;;;;;;;7.20;6.00;;;;;;;1.14;68.63;101991.53;1719540;82;21021;-73
2021/11/16 01:40:14;;;;;;;10.15;6.03;;;;;;;1.17;68.81;101987.28;1723895;83;21020;-74
2021/11/16 01:42:43;;;;;;;10.10;6.90;;;;;;;1.18;68.81;101985.83;1701715;83;23119;-72
2021/11/16 01:45:11;;;;;;;11.80;6.90;;;;;;;1.13;68.86;101993.34;1705004;83;21055;-73
2021/11/16 01:47:38;;;;;;;8.60;6.37;;;;;;;1.09;68.99;101988.44;1680093;84;21070;-72
2021/11/16 01:50:06;;;;;;;7.08;6.37;;;;;;;1.07;69.09;101988.56;1704575;84;21746;-72
2021/11/16 01:52:33;;;;;;;7.60;5.22;;;;;;;1.06;69.29;101982.06;1634322;84;21078;-73
2021/11/16 01:55:00;;;;;;;9.38;7.17;;;;;;;1.03;69.42;101979.20;1692278;83;21165;-71
2021/11/16 01:57:26;;;;;;;7.92;6.22;;;;;;;0.99;69.56;101989.72;1680921;85;21005;-73
2021/11/16 01:59:53;;;;;;;14.40;6.67;;;;;;;0.96;69.76;101987.82;1679983;83;20954;-73
2021/11/16 02:02:19;;;;;;;9.60;7.28;;;;;;;0.95;69.84;101987.46;1713390;83;21196;-73
2021/11/16 02:04:46;;;;;;;8.20;5.62;;;;;;;0.99;69.90;101979.59;1718211;83;21076;-72
2021/11/16 02:07:12;;;;;;;10.20;6.15;;;;;;;1.01;69.80;101983.78;1718063;83;21323;-71
2021/11/16 02:09:39;;;;;;;12.70;7.25;;;;;;;1.01;69.73;101975.02;1672151;83;20992;-72
2021/11/16 02:12:07;;;;;;;6.05;5.40;;;;;;;1.01;69.80;101982.45;1717899;83;20998;-76
2021/11/16 02:14:35;;;;;;;5.45;4.90;;;;;;;0.99;69.91;101974.30;1695788;83;20986;-72
2021/11/16 02:17:03;;;;;;;7.33;5.20;;;;;;;0.98;69.98;101971.28;1695158;83;20943;-73
2021/11/16 02:19:29;;;;;;;8.70;5.85;;;;;;;0.95;70.12;101963.13;1695776;83;20968;-73
2021/11/16 02:21:55;;;;;;;6.12;5.58;;;;;;;0.88;70.32;101964.13;1717972;83;20959;-73
2021/11/16 02:24:22;;;;;;;7.55;5.58;;;;;;;0.87;70.45;101959.80;1718437;83;21021;-73
2021/11/16 02:26:48;;;;;;;8.23;5.17;;;;;;;0.88;70.50;101954.86;1718164;83;21705;-70
2021/11/16 02:29:14;;;;;;;7.85;6.62;;;;;;;0.90;70.61;101948.11;1718341;83;21045;-74
2021/11/16 02:31:44;;;;;;;7.12;5.10;;;;;;;0.93;70.63;101945.19;1695493;83;21194;-72
2021/11/16 02:34:10;;;;;;;8.48;6.47;;;;;;;0.92;70.71;101937.36;1697784;83;20915;-73
2021/11/16 02:36:36;;;;;;;9.58;6.72;;;;;;;0.84;70.87;101942.02;1697284;83;21084;-73
2021/11/16 02:39:05;;;;;;;6.85;5.60;;;;;;;0.77;71.17;101941.69;1705165;83;21094;-72
2021/11/16 02:41:34;;;;;;;6.95;6.10;;;;;;;0.71;71.40;101943.55;1728052;83;21025;-69
2021/11/16 02:44:02;;;;;;;14.78;7.58;;;;;;;0.74;71.61;101941.95;1704877;83;21085;-69
2021/11/16 02:46:29;;;;;;;8.83;6.75;;;;;;;0.75;71.63;101935.70;1727988;83;21026;-70
2021/11/16 02:48:55;;;;;;;8.03;6.73;;;;;;;0.78;71.75;101935.42;1704871;83;20939;-72
2021/11/16 02:51:22;;;;;;;8.63;5.97;;;;;;;0.81;71.75;101931.20;1699384;81;21603;-74
2021/11/16 02:53:48;;;;;;;7.20;6.40;;;;;;;0.82;71.80;101935.51;1745033;81;21751;-75
2021/11/16 02:56:14;;;;;;;9.55;6.60;;;;;;;0.83;71.82;101934.55;1749637;81;21099;-75
2021/11/16 02:58:41;;;;;;;6.80;6.20;;;;;;;0.80;71.84;101930.84;1723031;81;21511;-69
2021/11/16 03:01:14;;;;;;;8.05;7.05;;;;;;;0.78;71.93;101935.91;1740629;81;21008;-73
2021/11/16 03:03:41;;;;;;;9.70;6.92;;;;;;;0.73;72.00;101932.81;1765020;81;20929;-70
2021/11/16 03:06:09;;;;;;;9.23;6.80;;;;;;;0.74;72.16;101933.17;1737250;81;21501;-72
2021/11/16 03:08:35;;;;;;;8.73;6.12;;;;;;;0.77;71.99;101932.89;1781352;79;21134;-74
2021/11/16 03:11:07;;;;;;;7.73;6.43;;;;;;;0.77;71.79;101928.92;1763472;81;20940;-74
2021/11/16 03:13:38;;;;;;;8.50;7.60;;;;;;;0.80;71.63;101932.17;1762093;81;20910;-71
2021/11/16 03:16:15;;;;;;;7.03;5.77;;;;;;;0.81;71.49;101933.86;1763437;81;21061;-72
2021/11/16 03:18:50;;;;;;;9.57;8.30;;;;;;;0.81;71.64;101931.20;1766919;80;21005;-74
2021/11/16 03:21:18;;;;;;;17.02;9.20;;;;;;;0.83;71.66;101933.22;1766396;79;21903;-78
2021/11/16 03:23:46;;;;;;;9.30;6.10;;;;;;;0.83;71.80;101926.59;1734224;82;21001;-74
2021/11/16 03:26:14;;;;;;;7.90;6.25;;;;;;;0.88;71.63;101930.17;1734573;82;21147;-75
2021/11/16 03:28:44;;;;;;;12.68;7.85;;;;;;;0.84;70.83;101924.31;1750413;80;21489;-75
2021/11/16 03:31:19;;;;;;;8.63;6.37;;;;;;;0.79;70.54;101919.89;1716788;82;21041;-74
2021/11/16 03:33:39;;;;;;;7.47;6.77;;;;;;;0.85;70.65;101918.05;1734558;82;21134;-72
2021/11/16 03:36:05;;;;;;;6.72;6.10;;;;;;;0.90;70.69;101924.27;1735587;82;20940;-71
2021/11/16 03:38:33;;;;;;;8.10;5.53;;;;;;;0.95;70.65;101919.90;1667410;82;20918;-71
2021/11/16 03:40:59;;;;;;;7.17;6.40;;;;;;;0.96;70.65;101917.61;1748273;81;20997;-72
2021/11/16 03:43:26;;;;;;;8.03;6.55;;;;;;;0.95;70.73;101904.84;1749418;81;21058;-73
2021/11/16 03:45:55;;;;;;;7.60;6.90;;;;;;;0.98;70.88;101896.62;1752859;81;21093;-73
2021/11/16 03:48:22;;;;;;;7.00;6.40;;;;;;;1.01;71.00;101895.02;1753084;81;21593;-72
2021/11/16 03:50:48;;;;;;;9.15;7.47;;;;;;;1.02;70.79;101894.05;1703931;81;20985;-73
2021/11/16 03:53:14;;;;;;;11.28;9.43;;;;;;;1.02;70.49;101890.56;1753001;81;21041;-73
2021/11/16 03:55:42;;;;;;;10.23;8.33;;;;;;;1.01;70.58;101891.04;1752965;81;21038;-75
2021/11/16 03:58:14;;;;;;;11.63;8.18;;;;;;;0.98;70.74;101890.48;1752953;81;21044;-75
2021/11/16 04:00:46;;;;;;;9.90;7.65;;;;;;;0.95;70.96;101892.92;1704982;81;21582;-75
2021/11/16 04:03:13;;;;;;;9.43;7.60;;;;;;;0.95;71.14;101892.08;1711828;81;21552;-75
2021/11/16 04:05:39;;;;;;;8.88;6.55;;;;;;;1.01;71.31;101894.20;1708443;81;21632;-75
2021/11/16 04:08:06;;;;;;;9.08;7.67;;;;;;;1.07;71.32;101890.99;1691592;83;21587;-73
2021/11/16 04:10:33;;;;;;;8.30;7.50;;;;;;;1.05;71.27;101885.86;1740568;81;21102;-75
2021/11/16 04:12:59;;;;;;;10.78;6.62;;;;;;;1.00;71.38;101884.57;1752833;81;21025;-75
2021/11/16 04:15:27;;;;;;;9.73;8.65;;;;;;;0.96;71.53;101883.98;1752928;81;21128;-75
2021/11/16 04:17:55;;;;;;;10.25;7.67;;;;;;;0.88;71.49;101879.36;1710905;81;21006;-74
2021/11/16 04:20:29;;;;;;;8.08;6.37;;;;;;;0.88;71.49;101876.71;1702170;83;21045;-74
2021/11/16 04:22:56;;;;;;;9.00;7.10;;;;;;;0.85;71.56;101884.09;1723255;83;21118;-75
2021/11/16 04:25:23;;;;;;;9.93;8.73;;;;;;;0.82;71.79;101886.98;1723050;83;20984;-74
2021/11/16 04:27:50;;;;;;;9.67;8.23;;;;;;;0.76;71.34;101883.56;1746520;81;21053;-76
2021/11/16 04:30:18;;;;;;;11.20;8.08;;;;;;;0.73;71.57;101891.28;1711073;81;20969;-74
2021/11/16 04:32:45;;;;;;;13.10;7.95;;;;;;;0.68;72.08;101888.67;1753288;81;20993;-74
2021/11/16 04:35:11;;;;;;;10.93;8.30;;;;;;;0.68;72.29;101892.64;1753253;81;21525;-76
2021/11/16 04:37:40;;;;;;;8.80;7.55;;;;;;;0.75;72.41;101897.30;1706258;82;21557;-74
2021/11/16 04:40:11;;;;;;;9.90;8.20;;;;;;;0.77;72.36;101896.66;1712949;82;21093;-73
2021/11/16 04:42:37;;;;;;;8.95;7.37;;;;;;;0.83;72.44;101896.14;1713386;82;21058;-74
2021/11/16 04:45:08;;;;;;;10.08;8.03;;;;;;;0.89;72.43;101901.39;1713372;82;21089;-73
2021/11/16 04:47:58;;;;;;;9.98;8.15;;;;;;;0.91;72.24;101901.27;1712689;82;22099;-73
2021/11/16 04:50:17;;;;;;;9.30;8.30;;;;;;;0.88;72.36;101903.20;1730079;82;21125;-74
2021/11/16 04:52:50;;;;;;;8.78;7.87;;;;;;;0.87;72.54;101901.52;1712143;82;21038;-76
2021/11/16 05:03:17;;;;;;;10.93;9.18;;;;;;;0.83;73.00;101903.24;1712314;82;20939;-74
2021/11/16 05:05:43;;;;;;;9.93;7.97;;;;;;;0.82;73.15;101899.75;1737663;82;21031;-75
2021/11/16 05:08:11;;;;;;;13.60;9.83;;;;;;;0.84;73.24;101901.80;1738773;82;21054;-73
2021/11/16 05:10:38;;;;;;;13.37;10.77;;;;;;;0.79;73.22;101898.70;1738322;82;21555;-75
2021/11/16 05:13:04;;;;;;;12.77;10.13;;;;;;;0.77;73.26;101894.49;1713520;82;21109;-76
2021/11/16 05:15:33;;;;;;;14.27;9.53;;;;;;;0.74;73.15;101896.94;1738391;82;21015;-77
2021/11/16 05:18:00;;;;;;;11.55;10.38;;;;;;;0.72;73.23;101892.23;1712771;82;20963;-76
2021/11/16 05:20:26;;;;;;;11.48;10.20;;;;;;;0.72;73.22;101903.35;1736825;82;21002;-77
2021/11/16 05:22:53;;;;;;;15.15;9.83;;;;;;;0.72;73.33;101897.53;1737154;82;21079;-75
2021/11/16 05:25:21;;;;;;;11.80;10.43;;;;;;;0.67;73.21;101896.28;1736775;82;21590;-76
2021/11/16 05:27:47;;;;;;;13.63;9.57;;;;;;;0.66;73.50;101897.25;1736053;82;21070;-76
2021/11/16 05:30:15;;;;;;;11.63;10.43;;;;;;;0.65;74.00;101904.83;1713316;82;21033;-76
2021/11/16 05:32:41;;;;;;;11.43;10.35;;;;;;;0.64;74.07;101905.80;1713417;82;21111;-74
2021/11/16 05:35:09;;;;;;;15.93;11.80;;;;;;;0.60;74.22;101903.06;1735809;82;21007;-80
2021/11/16 05:37:37;;;;;;;14.70;12.40;;;;;;;0.55;74.05;101906.58;1706851;81;21088;-75
2021/11/16 05:40:03;;;;;;;13.93;11.70;;;;;;;0.56;74.03;101906.46;1735700;81;20988;-73
2021/11/16 05:42:35;;;;;;;15.43;12.93;;;;;;;0.59;74.06;101906.67;1710834;81;21477;-73
2021/11/16 05:45:03;;;;;;;16.27;12.60;;;;;;;0.66;74.02;101906.52;1760224;81;20988;-74
2021/11/16 05:47:29;;;;;;;15.77;12.50;;;;;;;0.71;73.98;101906.48;1724747;81;21053;-75
2021/11/16 05:49:56;;;;;;;20.17;13.13;;;;;;;0.75;73.54;101903.91;1759243;81;21525;-75
2021/11/16 05:52:23;;;;;;;23.38;16.97;;;;;;;0.84;73.30;101902.28;1759440;81;21635;-73
2021/11/16 05:54:52;;;;;;;21.90;14.47;;;;;;;0.93;72.83;101908.09;1735517;81;21520;-78
2021/11/16 05:57:18;;;;;;;20.40;14.53;;;;;;;0.97;71.88;101915.29;1759362;81;21103;-72
2021/11/16 05:59:44;;;;;;;18.67;13.93;;;;;;;0.95;71.28;101907.98;1735942;81;21044;-72
2021/11/16 06:02:11;;;;;;;27.10;19.27;;;;;;;0.98;71.30;101916.97;1759801;81;22111;-74
2021/11/16 06:04:39;;;;;;;17.63;14.80;;;;;;;0.95;70.38;101914.12;1759170;81;20981;-75
2021/11/16 06:07:06;;;;;;;31.15;14.93;;;;;;;0.93;70.01;101933.27;1736176;81;20957;-75
2021/11/16 06:09:33;;;;;;;20.17;16.47;;;;;;;0.90;69.97;101924.76;1759177;81;21064;-75
2021/11/16 06:12:00;;;;;;;22.57;16.27;;;;;;;0.92;70.21;101919.66;1759387;81;21037;-74
2021/11/16 06:14:27;;;;;;;25.85;17.27;;;;;;;0.93;70.04;101922.67;1735485;81;21056;-74
2021/11/16 06:16:54;;;;;;;28.92;16.00;;;;;;;0.93;70.06;101925.80;1735367;81;20977;-73
2021/11/16 06:19:23;;;;;;;19.63;17.50;;;;;;;0.88;70.36;101924.39;1759365;81;20968;-74
2021/11/16 06:21:49;;;;;;;22.00;16.83;;;;;;;0.90;70.73;101928.73;1759687;81;21048;-73
2021/11/16 06:24:15;;;;;;;21.90;17.12;;;;;;;0.93;70.75;101927.97;1759841;81;20964;-74
2021/11/16 06:26:41;;;;;;;20.57;16.20;;;;;;;0.97;70.38;101932.03;1760056;81;21110;-73
2021/11/16 06:29:08;;;;;;;16.05;13.18;;;;;;;1.00;70.10;101928.30;1734568;81;21584;-72
2021/11/16 06:31:35;;;;;;;18.23;13.93;;;;;;;1.04;69.84;101929.70;1759461;81;21544;-77
2021/11/16 06:34:03;;;;;;;20.40;14.07;;;;;;;1.04;69.34;101929.22;1759016;81;20921;-76
2021/11/16 06:36:36;;;;;;;17.15;12.43;;;;;;;1.05;69.28;101926.92;1759018;81;20957;-75
2021/11/16 06:39:15;;;;;;;17.82;13.55;;;;;;;1.06;69.29;101921.95;1762838;81;21939;-78
2021/11/16 06:41:42;;;;;;;21.30;16.43;;;;;;;1.11;69.33;101929.02;1764647;81;20996;-76
2021/11/16 06:44:10;;;;;;;13.90;11.60;;;;;;;1.07;68.93;101926.77;1764476;81;20957;-76
2021/11/16 06:46:36;;;;;;;20.77;14.35;;;;;;;1.06;68.99;101920.63;1764642;81;21095;-72
2021/11/16 06:49:04;;;;;;;18.05;11.97;;;;;;;1.05;68.70;101920.78;1764620;81;21070;-71
2021/11/16 06:51:36;;;;;;;20.23;13.27;;;;;;;0.95;69.05;101912.80;1740663;81;21095;-74
2021/11/16 06:53:59;;;;;;;16.32;13.43;;;;;;;0.96;69.40;101921.59;1763940;81;20980;-75
2021/11/16 06:56:25;;;;;;;25.60;16.43;;;;;;;0.96;69.37;101915.77;1740519;81;21457;-74
2021/11/16 06:58:52;;;;;;;18.47;14.17;;;;;;;0.94;69.35;101917.73;1740943;81;20956;-72
2021/11/16 07:01:18;;;;;;;19.27;13.33;;;;;;;0.89;69.41;101913.31;1742507;81;21063;-73
2021/11/16 07:03:51;;;;;;;15.23;11.77;;;;;;;0.87;69.42;101912.59;1765263;81;20996;-74
2021/11/16 07:06:17;;;;;;;14.43;9.45;;;;;;;0.91;69.24;101917.16;1774207;80;22394;-75
2021/11/16 07:08:46;;;;;;;14.30;10.65;;;;;;;0.86;68.90;101910.95;1754500;80;20980;-73
2021/11/16 07:11:18;;;;;;;17.40;12.07;;;;;;;0.88;69.14;101908.98;1778288;80;20968;-73
2021/11/16 07:14:05;;;;;;;14.63;11.03;;;;;;;0.95;69.03;101913.28;1732493;81;21067;-72
2021/11/16 07:16:58;;;;;;;14.13;12.50;;;;;;;1.00;68.88;101908.42;1740781;81;21019;-75
2021/11/16 07:19:47;;;;;;;14.87;11.37;;;;;;;1.04;68.82;101913.80;1763652;81;21008;-72
2021/11/16 07:22:23;;;;;;;18.80;10.97;;;;;;;1.07;68.68;101910.87;1764728;81;21081;-73
2021/11/16 07:25:02;;;;;;;13.53;11.10;;;;;;;1.06;68.48;101911.35;1764621;81;21027;-73
2021/11/16 07:27:42;;;;;;;11.07;9.47;;;;;;;1.10;68.47;101904.00;1764064;81;21575;-73
2021/11/16 07:30:12;;;;;;;11.83;10.63;;;;;;;1.16;68.34;101907.41;1763086;81;21051;-74
2021/11/16 07:32:49;;;;;;;13.48;10.75;;;;;;;1.22;68.24;101899.77;1711957;81;21513;-74
2021/11/16 07:35:25;;;;;;;10.18;8.88;;;;;;;1.31;68.16;101891.00;1764419;81;21070;-73
2021/11/16 07:37:58;;;;;;;19.62;10.48;;;;;;;1.38;67.78;101889.14;1765132;81;20959;-73
2021/11/16 07:40:25;;;;;;;10.75;9.15;;;;;;;1.37;67.89;101884.81;1760453;81;21030;-76
2021/11/16 07:43:12;;;;;;;17.27;9.40;;;;;;;1.43;67.90;101887.77;1759813;80;21502;-77
2021/11/16 07:45:43;;;;;;;11.00;9.68;;;;;;;1.46;67.42;101886.64;1735511;81;20952;-72
2021/11/16 07:48:13;;;;;;;13.18;10.35;;;;;;;1.42;67.39;101880.78;1759472;81;21691;-78
2021/11/16 07:50:50;;;;;;;12.33;9.93;;;;;;;1.47;67.42;101880.37;1735439;81;21082;-73
2021/11/16 07:53:37;;;;;;;16.12;10.58;;;;;;;1.44;67.11;101870.05;1759333;80;21485;-75
2021/11/16 07:56:11;;;;;;;10.20;9.15;;;;;;;1.48;67.23;101878.07;1759365;81;21011;-75
2021/11/16 07:58:52;;;;;;;11.28;9.65;;;;;;;1.46;67.16;101871.57;1712819;81;21544;-78
2021/11/16 08:01:34;;;;;;;13.62;11.33;;;;;;;1.52;67.26;101880.80;1732911;81;21023;-77
2021/11/16 08:04:05;;;;;;;20.80;11.45;;;;;;;1.58;67.43;101866.99;1757990;81;21544;-76
2021/11/16 08:06:32;;;;;;;11.53;9.53;;;;;;;1.67;67.16;101871.46;1734827;81;21020;-76
2021/11/16 08:09:10;;;;;;;18.25;12.20;;;;;;;1.74;67.06;101872.08;1759005;81;21207;-76
2021/11/16 08:11:40;;;;;;;11.80;10.60;;;;;;;1.80;67.04;101870.69;1735004;81;21285;-75
2021/11/16 08:14:12;;;;;;;16.55;10.43;;;;;;;1.86;66.86;101872.80;1758403;81;20987;-77
2021/11/16 08:16:57;;;;;;;14.83;10.88;;;;;;;1.91;66.79;101867.91;1760515;81;20983;-78
2021/11/16 08:19:30;;;;;;;12.85;9.75;;;;;;;1.97;66.66;101879.75;1733416;81;21094;-77
2021/11/16 08:21:57;;;;;;;;;;;;;;;2.05;66.45;101875.93;1720400;82;21061;-74
2021/11/16 08:24:29;;;;;;;11.85;9.83;;;;;;;2.13;65.96;101872.91;1718877;81;20106;-74
2021/11/16 08:26:58;;;;;;;13.72;10.28;;;;;;;2.01;65.43;101868.75;1711362;81;21648;-73
2021/11/16 08:29:36;;;;;;;11.50;10.40;;;;;;;1.96;66.02;101869.66;1759306;81;20984;-73
2021/11/16 08:32:09;;;;;;;12.13;9.95;;;;;;;1.98;66.08;101862.38;1759313;81;20976;-77
2021/11/16 08:34:38;;;;;;;11.40;10.20;;;;;;;2.00;66.17;101863.08;1719280;81;21145;-76
2021/11/16 08:37:06;;;;;;;13.93;10.95;;;;;;;2.07;66.29;101859.35;1735579;81;21024;-75
2021/11/16 08:39:49;;;;;;;10.93;9.83;;;;;;;2.16;66.08;101867.30;1755075;81;21096;-75
2021/11/16 08:42:35;;;;;;;11.70;8.90;;;;;;;2.22;65.91;101864.58;1682825;83;21004;-80
2021/11/16 08:45:18;;;;;;;13.60;9.30;;;;;;;2.24;65.56;101865.77;1729668;81;21123;-73
2021/11/16 08:47:53;;;;;;;12.15;9.43;;;;;;;2.25;65.76;101856.34;1710454;82;22499;-74
2021/11/16 08:50:32;;;;;;;9.50;8.43;;;;;;;2.21;65.69;101855.45;1710525;81;21062;-73
2021/11/16 08:53:05;;;;;;;9.53;8.45;;;;;;;2.20;65.51;101846.64;1740091;82;21568;-71
2021/11/16 08:55:33;;;;;;;;;;;;;;;2.13;65.15;101841.55;1750238;81;21008;-71
2021/11/16 08:58:01;;;;;;;10.95;9.48;;;;;;;2.07;65.23;101840.77;1726075;81;20143;-73
2021/11/16 09:00:34;;;;;;;13.83;9.13;;;;;;;2.04;65.64;101839.74;1750578;81;21161;-74
2021/11/16 09:03:06;;;;;;;9.65;8.48;;;;;;;2.09;65.21;101825.55;1742061;81;20954;-73
2021/11/16 09:05:37;;;;;;;9.80;7.93;;;;;;;2.09;65.21;101825.55;1696384;83;20981;-74
2021/11/16 09:08:07;;;;;;;10.32;7.85;;;;;;;2.11;65.33;101830.25;1703424;82;21252;-72
2021/11/16 09:10:38;;;;;;;9.43;8.08;;;;;;;2.08;65.55;101827.86;1709886;81;21582;-73
2021/11/16 09:13:06;;;;;;;9.48;8.48;;;;;;;2.11;65.58;101832.91;1719481;81;21114;-74
2021/11/16 09:15:42;;;;;;;10.38;8.73;;;;;;;2.14;65.58;101826.81;1752727;81;21001;-72
2021/11/16 09:18:22;;;;;;;9.18;8.20;;;;;;;2.22;65.69;101829.22;1750293;81;20938;-73
2021/11/16 09:20:59;;;;;;;13.53;7.30;;;;;;;2.34;65.47;101824.11;1692109;83;21033;-74
2021/11/16 09:23:39;;;;;;;14.23;9.90;;;;;;;2.44;65.22;101821.78;1738341;81;21054;-73
2021/11/16 09:26:35;;;;;;;9.05;8.15;;;;;;;2.49;64.69;101816.03;1740230;82;21535;-75
2021/11/16 09:29:07;;;;;;;11.53;9.43;;;;;;;2.54;64.59;101812.45;1719305;81;21046;-73
2021/11/16 09:31:45;;;;;;;10.25;8.88;;;;;;;2.56;64.24;101803.34;1747592;81;22353;-74
2021/11/16 09:34:28;;;;;;;15.15;9.53;;;;;;;2.58;63.93;101812.01;1743005;82;21549;-76
2021/11/16 09:37:01;;;;;;;10.93;9.50;;;;;;;2.53;63.75;101800.98;1710604;82;21125;-73
2021/11/16 09:39:44;;;;;;;12.37;9.77;;;;;;;2.50;63.77;101789.79;1710230;81;21113;-73
2021/11/16 09:42:17;;;;;;;10.08;8.43;;;;;;;2.50;64.15;101794.61;1690343;83;21058;-73
2021/11/16 09:44:48;;;;;;;13.55;10.32;;;;;;;2.58;63.43;101792.09;1686075;83;20962;-76
2021/11/16 09:47:25;;;;;;;15.48;10.03;;;;;;;2.64;63.58;101787.49;1713419;83;21077;-75
2021/11/16 09:49:58;;;;;;;13.43;9.50;;;;;;;2.68;63.31;101791.20;1681744;83;21054;-69
2021/11/16 09:52:40;;;;;;;13.80;8.90;;;;;;;2.63;63.16;101785.84;1726710;82;21658;-78
2021/11/16 09:55:18;;;;;;;9.28;7.90;;;;;;;2.59;63.37;101771.67;1733417;82;21512;-76
2021/11/16 09:57:48;;;;;;;9.63;8.63;;;;;;;2.67;63.14;101779.73;1689223;83;20985;-76
2021/11/16 10:00:19;;;;;;;11.90;8.70;;;;;;;2.67;63.18;101770.92;1698615;82;21047;-76
2021/11/16 10:03:05;;;;;;;9.98;8.98;;;;;;;2.72;63.02;101773.98;1685245;83;21736;-74
2021/11/16 10:05:42;;;;;;;12.93;10.10;;;;;;;2.73;62.69;101770.34;1711439;83;21793;-74
2021/11/16 10:08:10;;;;;;;13.75;9.33;;;;;;;2.62;62.85;101763.41;1722783;82;20966;-74
2021/11/16 10:10:41;;;;;;;9.85;8.45;;;;;;;2.59;62.87;101770.34;1706810;82;20986;-77
2021/11/16 10:13:12;;;;;;;12.95;9.28;;;;;;;2.61;63.02;101777.17;1724763;82;20963;-75
2021/11/16 10:15:45;;;;;;;11.48;10.25;;;;;;;2.63;62.82;101769.06;1742301;82;21483;-75
2021/11/16 10:18:14;;;;;;;16.07;10.03;;;;;;;2.63;63.00;101765.92;1722455;82;22136;-73
2021/11/16 10:20:43;;;;;;;12.23;10.13;;;;;;;2.63;62.93;101759.77;1666269;82;21066;-75
2021/11/16 10:23:12;;;;;;;13.03;10.82;;;;;;;2.68;63.09;101752.68;1704925;82;21038;-72
2021/11/16 10:25:49;;;;;;;12.65;10.43;;;;;;;2.69;62.74;101748.52;1719312;82;20947;-74
2021/11/16 10:28:17;;;;;;;12.20;9.35;;;;;;;2.77;62.94;101757.94;1685022;83;21147;-73
2021/11/16 10:30:45;;;;;;;17.48;9.80;;;;;;;2.82;62.78;101748.20;1684908;83;21064;-76
2021/11/16 10:33:22;;;;;;;13.70;10.30;;;;;;;2.89;62.76;101738.13;1712438;82;21014;-73
2021/11/16 10:35:59;;;;;;;16.27;12.00;;;;;;;2.99;62.71;101741.56;1691141;83;21092;-72
2021/11/16 10:38:34;;;;;;;16.05;11.12;;;;;;;3.15;62.49;101744.05;1696542;82;21071;-73
2021/11/16 10:41:05;;;;;;;12.35;10.53;;;;;;;3.26;62.12;101734.53;1750382;82;21049;-71
2021/11/16 10:43:53;;;;;;;11.65;10.00;;;;;;;3.31;61.37;101729.59;1724167;82;21073;-71
2021/11/16 10:46:22;;;;;;;13.22;10.60;;;;;;;3.32;60.81;101717.45;1725348;82;21004;-73
2021/11/16 10:48:49;;;;;;;21.65;12.35;;;;;;;3.36;61.17;101715.31;1750663;82;21017;-71
2021/11/16 10:51:17;;;;;;;13.90;12.25;;;;;;;3.43;60.97;101713.23;1727349;82;21602;-71
2021/11/16 10:53:50;;;;;;;12.40;11.12;;;;;;;3.51;60.67;101719.94;1714332;82;21086;-71
2021/11/16 10:56:17;;;;;;;20.90;11.73;;;;;;;3.54;60.44;101706.00;1741818;81;21012;-72
2021/11/16 10:58:46;;;;;;;12.57;10.33;;;;;;;3.59;60.44;101695.23;1712415;82;21034;-73
2021/11/16 11:01:15;;;;;;;13.62;10.90;;;;;;;3.69;60.19;101703.96;1713027;82;21104;-71
2021/11/16 11:03:46;;;;;;;17.27;13.03;;;;;;;3.74;59.93;101704.83;1722639;82;20953;-74
2021/11/16 11:06:21;;;;;;;16.93;12.75;;;;;;;3.79;60.06;101698.54;1737205;82;21125;-73
2021/11/16 11:09:03;;;;;;;14.53;12.00;;;;;;;3.79;59.84;101695.35;1737387;82;21184;-73
2021/11/16 11:11:39;;;;;;;13.38;11.93;;;;;;;3.83;59.14;101703.88;1736977;82;20944;-73
2021/11/16 11:14:27;;;;;;;13.40;12.00;;;;;;;3.72;59.19;101706.30;1721041;82;21135;-71
2021/11/16 11:17:02;;;;;;;15.10;11.80;;;;;;;3.73;59.32;101699.16;1713916;82;21035;-71
2021/11/16 11:19:35;;;;;;;13.43;10.90;;;;;;;3.83;59.48;101693.23;1746361;82;21002;-71
2021/11/16 11:22:26;;;;;;;14.83;11.12;;;;;;;3.98;59.00;101694.30;1750107;82;21146;-70
2021/11/16 11:25:02;;;;;;;18.57;15.58;;;;;;;4.01;58.67;101687.34;1720414;83;21573;-71
2021/11/16 11:27:33;;;;;;;14.35;12.70;;;;;;;3.99;58.54;101690.65;1720211;83;21044;-79
2021/11/16 11:29:59;;;;;;;13.85;11.55;;;;;;;3.90;58.80;101683.61;1701180;82;28498;-82
2021/11/16 11:32:34;;;;;;;15.00;12.40;;;;;;;3.90;58.80;101683.61;1692726;83;21584;-80
2021/11/16 11:35:12;;;;;;;13.53;12.13;;;;;;;3.90;58.36;101678.29;1697530;82;49361;-80
2021/11/16 11:37:53;;;;;;;14.98;10.23;;;;;;;3.91;58.36;101670.16;1731064;82;21045;-79
2021/11/16 11:40:29;;;;;;;12.15;10.45;;;;;;;3.90;58.41;101671.63;1739838;81;20986;-80
2021/11/16 11:43:15;;;;;;;13.65;10.75;;;;;;;3.97;58.50;101657.20;1733276;81;21036;-81
2021/11/16 11:45:43;;;;;;;10.25;9.18;;;;;;;4.03;58.46;101657.39;1683158;85;21093;-72
2021/11/16 11:48:19;;;;;;;10.28;9.00;;;;;;;4.20;58.41;101656.98;1692163;82;21904;-72